createdAt,value
2023-04-17T00:00:53.852Z,33.59
2023-04-17T00:01:54.011Z,33.50
2023-04-17T00:02:54.057Z,32.72
2023-04-17T00:03:54.106Z,35.42
2023-04-17T00:04:54.129Z,34.56
2023-04-17T00:05:54.184Z,35.19
2023-04-17T00:06:54.146Z,35.31
2023-04-17T00:07:54.196Z,36.21
2023-04-17T00:08:54.199Z,34.42
2023-04-17T00:09:54.223Z,34.52
2023-04-17T00:11:04.645Z,35.44
2023-04-17T00:11:55.263Z,35.62
2023-04-17T00:12:54.234Z,35.80
2023-04-17T00:13:54.253Z,35.88
2023-04-17T00:14:54.238Z,36.13
2023-04-17T00:15:54.234Z,37.24
2023-04-17T00:16:54.269Z,36.32
2023-04-17T00:17:54.279Z,37.37
2023-04-17T00:18:54.250Z,36.13
2023-04-17T00:19:54.174Z,35.83
2023-04-17T00:20:54.178Z,36.15
2023-04-17T00:21:54.162Z,35.93
2023-04-17T00:22:54.168Z,35.41
2023-04-17T00:23:54.232Z,37.40
2023-04-17T00:24:54.240Z,37.81
2023-04-17T00:25:54.297Z,36.60
2023-04-17T00:26:54.349Z,36.76
2023-04-17T00:27:54.369Z,34.80
2023-04-17T00:28:54.458Z,35.66
2023-04-17T00:29:54.528Z,37.08
2023-04-17T00:30:54.532Z,36.12
2023-04-17T00:31:54.589Z,35.45
2023-04-17T00:32:54.724Z,34.84
2023-04-17T00:33:54.654Z,35.26
2023-04-17T00:34:55.801Z,35.38
2023-04-17T00:35:54.784Z,34.51
2023-04-17T00:36:54.785Z,35.41
2023-04-17T00:37:54.822Z,35.78
2023-04-17T00:38:54.907Z,36.34
2023-04-17T00:39:54.936Z,35.57
2023-04-17T00:40:54.967Z,34.74
2023-04-17T00:41:55.015Z,34.96
2023-04-17T00:42:55.028Z,38.37
2023-04-17T00:43:55.093Z,37.72
2023-04-17T00:44:55.142Z,38.14
2023-04-17T00:45:55.246Z,35.96
2023-04-17T00:46:55.289Z,36.25
2023-04-17T00:47:55.349Z,37.54
2023-04-17T00:48:55.306Z,36.31
2023-04-17T00:49:55.377Z,36.31
2023-04-17T00:50:55.505Z,38.13
2023-04-17T00:51:55.448Z,38.35
2023-04-17T00:52:55.513Z,37.67
2023-04-17T00:53:55.534Z,37.39
2023-04-17T00:54:55.626Z,36.46
2023-04-17T00:55:55.660Z,34.18
2023-04-17T00:56:55.746Z,35.20
2023-04-17T00:57:55.808Z,36.71
2023-04-17T00:58:55.812Z,34.98
2023-04-17T00:59:55.885Z,37.69
2023-04-17T01:00:55.929Z,38.21
2023-04-17T01:01:56.025Z,36.72
2023-04-17T01:02:56.137Z,36.57
2023-04-17T01:03:56.155Z,35.75
2023-04-17T01:04:56.111Z,35.79
2023-04-17T01:05:56.121Z,34.39
2023-04-17T01:06:56.170Z,36.12
2023-04-17T01:07:56.253Z,38.34
2023-04-17T01:08:56.998Z,36.50
2023-04-17T01:09:56.333Z,36.81
2023-04-17T01:10:56.440Z,35.94
2023-04-17T01:11:56.455Z,35.69
2023-04-17T01:12:56.518Z,35.08
2023-04-17T01:13:56.564Z,33.50
2023-04-17T01:14:56.639Z,36.08
2023-04-17T01:15:56.683Z,35.20
2023-04-17T01:16:56.755Z,35.70
2023-04-17T01:17:56.818Z,36.81
2023-04-17T01:18:56.856Z,36.59
2023-04-17T01:19:56.840Z,36.74
2023-04-17T01:20:56.921Z,38.49
2023-04-17T01:21:57.030Z,37.97
2023-04-17T01:22:57.036Z,36.26
2023-04-17T01:23:57.113Z,36.82
2023-04-17T01:24:57.152Z,38.59
2023-04-17T01:25:57.262Z,37.73
2023-04-17T01:26:57.264Z,38.28
2023-04-17T01:27:57.387Z,36.74
2023-04-17T01:28:57.436Z,35.76
2023-04-17T01:29:57.415Z,35.73
2023-04-17T01:30:57.522Z,36.24
2023-04-17T01:31:57.573Z,36.72
2023-04-17T01:32:57.676Z,35.68
2023-04-17T01:33:57.615Z,36.67
2023-04-17T01:34:57.746Z,37.47
2023-04-17T01:35:57.734Z,36.85
2023-04-17T01:36:57.781Z,36.72
2023-04-17T01:37:57.975Z,36.18
2023-04-17T01:38:57.923Z,35.69
2023-04-17T01:39:57.963Z,36.08
2023-04-17T01:40:58.021Z,35.59
2023-04-17T01:41:58.092Z,36.57
2023-04-17T01:42:58.131Z,35.89
2023-04-17T01:43:58.153Z,35.20
2023-04-17T01:44:58.204Z,36.12
2023-04-17T01:45:58.298Z,36.07
2023-04-17T01:46:58.336Z,34.96
2023-04-17T01:47:58.459Z,34.34
2023-04-17T01:48:58.444Z,36.40
2023-04-17T01:49:58.486Z,35.75
2023-04-17T01:50:58.550Z,37.29
2023-04-17T01:51:58.604Z,35.04
2023-04-17T01:52:58.673Z,36.96
2023-04-17T01:53:58.704Z,37.90
2023-04-17T01:54:58.798Z,36.96
2023-04-17T01:55:58.855Z,36.03
2023-04-17T01:56:58.916Z,36.71
2023-04-17T01:57:58.953Z,35.53
2023-04-17T01:58:59.018Z,36.09
2023-04-17T01:59:59.029Z,37.43
2023-04-17T02:00:59.090Z,37.23
2023-04-17T02:01:59.401Z,38.15
2023-04-17T02:02:59.286Z,38.03
2023-04-17T02:03:59.485Z,37.97
2023-04-17T02:04:59.287Z,37.47
2023-04-17T02:05:59.321Z,36.31
2023-04-17T02:06:59.434Z,37.14
2023-04-17T02:07:59.500Z,36.44
2023-04-17T02:08:59.568Z,37.09
2023-04-17T02:09:59.613Z,36.16
2023-04-17T02:10:59.621Z,35.20
2023-04-17T02:11:59.727Z,35.11
2023-04-17T02:12:59.745Z,36.73
2023-04-17T02:13:59.766Z,36.05
2023-04-17T02:14:59.866Z,37.20
2023-04-17T02:15:59.904Z,35.63
2023-04-17T02:17:00.023Z,37.80
2023-04-17T02:18:00.021Z,37.51
2023-04-17T02:19:00.032Z,35.35
2023-04-17T02:20:00.135Z,37.46
2023-04-17T02:21:00.190Z,37.65
2023-04-17T02:22:00.211Z,37.04
2023-04-17T02:23:00.374Z,35.19
2023-04-17T02:24:01.056Z,36.56
2023-04-17T02:25:00.421Z,35.56
2023-04-17T02:26:00.436Z,37.24
2023-04-17T02:27:00.550Z,37.03
2023-04-17T02:28:00.561Z,35.65
2023-04-17T02:29:00.676Z,35.91
2023-04-17T02:30:00.676Z,36.98
2023-04-17T02:31:00.749Z,36.18
2023-04-17T02:32:00.792Z,36.69
2023-04-17T02:33:00.905Z,37.27
2023-04-17T02:34:00.901Z,38.63
2023-04-17T02:35:00.905Z,37.16
2023-04-17T02:36:00.966Z,37.03
2023-04-17T02:37:01.027Z,39.67
2023-04-17T02:38:01.142Z,37.12
2023-04-17T02:39:01.094Z,36.77
2023-04-17T02:40:01.198Z,39.38
2023-04-17T02:41:01.201Z,38.66
2023-04-17T02:42:01.307Z,37.42
2023-04-17T02:43:01.485Z,36.56
2023-04-17T02:44:01.399Z,35.12
2023-04-17T02:45:01.505Z,36.74
2023-04-17T02:46:01.499Z,36.57
2023-04-17T02:47:01.675Z,35.84
2023-04-17T02:48:01.647Z,34.44
2023-04-17T02:49:01.662Z,38.42
2023-04-17T02:50:01.756Z,38.11
2023-04-17T02:51:01.806Z,37.59
2023-04-17T02:52:01.883Z,37.48
2023-04-17T02:53:01.950Z,37.69
2023-04-17T02:54:01.981Z,39.54
2023-04-17T02:55:02.058Z,38.00
2023-04-17T02:56:03.019Z,37.74
2023-04-17T02:57:02.144Z,38.32
2023-04-17T02:58:02.204Z,35.56
2023-04-17T02:59:02.205Z,36.10
2023-04-17T03:00:02.368Z,34.00
2023-04-17T03:01:02.521Z,36.46
2023-04-17T03:02:02.571Z,36.23
2023-04-17T03:03:02.618Z,36.14
2023-04-17T03:04:02.711Z,37.92
2023-04-17T03:05:02.538Z,37.17
2023-04-17T03:06:02.608Z,34.53
2023-04-17T03:07:02.675Z,37.06
2023-04-17T03:08:02.702Z,35.99
2023-04-17T03:09:02.796Z,41.94
2023-04-17T03:10:02.787Z,38.46
2023-04-17T03:11:02.893Z,41.12
2023-04-17T03:12:02.959Z,40.07
2023-04-17T03:13:03.001Z,40.61
2023-04-17T03:14:03.022Z,41.75
2023-04-17T03:15:03.163Z,42.13
2023-04-17T03:16:03.167Z,40.51
2023-04-17T03:17:03.175Z,41.06
2023-04-17T03:18:03.277Z,39.69
2023-04-17T03:19:03.322Z,38.87
2023-04-17T03:20:03.384Z,39.86
2023-04-17T03:21:03.424Z,36.45
2023-04-17T03:22:03.434Z,36.52
2023-04-17T03:23:03.539Z,35.29
2023-04-17T03:24:03.548Z,36.59
2023-04-17T03:25:03.640Z,38.64
2023-04-17T03:26:03.712Z,38.03
2023-04-17T03:27:03.779Z,36.88
2023-04-17T03:28:04.494Z,37.02
2023-04-17T03:29:03.885Z,36.60
2023-04-17T03:30:03.950Z,36.85
2023-04-17T03:31:04.003Z,37.02
2023-04-17T03:32:04.163Z,36.08
2023-04-17T03:33:04.114Z,35.98
2023-04-17T03:34:04.195Z,37.81
2023-04-17T03:35:04.219Z,38.74
2023-04-17T03:36:04.298Z,38.17
2023-04-17T03:37:04.330Z,38.88
2023-04-17T03:38:04.411Z,38.66
2023-04-17T03:39:04.487Z,37.99
2023-04-17T03:40:04.487Z,35.89
2023-04-17T03:41:04.526Z,35.27
2023-04-17T03:42:04.585Z,36.04
2023-04-17T03:43:04.661Z,37.48
2023-04-17T03:44:04.715Z,39.07
2023-04-17T03:45:04.867Z,40.10
2023-04-17T03:46:04.845Z,42.29
2023-04-17T03:47:04.890Z,41.75
2023-04-17T03:48:04.997Z,39.80
2023-04-17T03:49:05.015Z,40.71
2023-04-17T03:50:05.069Z,40.14
2023-04-17T03:51:05.073Z,39.37
2023-04-17T03:52:05.172Z,36.91
2023-04-17T03:53:05.222Z,38.22
2023-04-17T03:54:05.300Z,37.19
2023-04-17T03:55:05.287Z,36.55
2023-04-17T03:56:05.393Z,36.66
2023-04-17T03:57:05.472Z,37.23
2023-04-17T03:58:05.519Z,36.69
2023-04-17T03:59:05.592Z,37.39
2023-04-17T04:00:05.628Z,36.34
2023-04-17T04:01:05.690Z,38.31
2023-04-17T04:02:05.823Z,37.95
2023-04-17T04:03:06.015Z,40.33
2023-04-17T04:04:05.936Z,39.67
2023-04-17T04:05:05.959Z,38.97
2023-04-17T04:06:05.979Z,35.67
2023-04-17T04:07:06.037Z,35.55
2023-04-17T04:08:06.102Z,33.68
2023-04-17T04:09:06.162Z,29.52
2023-04-17T04:10:06.175Z,26.06
2023-04-17T04:11:06.268Z,25.63
2023-04-17T04:12:06.272Z,25.77
2023-04-17T04:13:06.376Z,25.00
2023-04-17T04:14:06.442Z,25.58
2023-04-17T04:15:06.495Z,25.00
2023-04-17T04:16:06.599Z,25.50
2023-04-17T04:17:06.610Z,25.22
2023-04-17T04:18:06.740Z,25.33
2023-04-17T04:19:06.722Z,25.39
2023-04-17T04:20:06.749Z,25.30
2023-04-17T04:21:06.791Z,25.21
2023-04-17T04:22:07.049Z,25.36
2023-04-17T04:23:06.920Z,25.29
2023-04-17T04:24:06.907Z,25.11
2023-04-17T04:25:06.968Z,25.00
2023-04-17T04:26:07.038Z,25.42
2023-04-17T04:27:07.177Z,26.34
2023-04-17T04:28:07.148Z,25.15
2023-04-17T04:29:07.215Z,25.00
2023-04-17T04:30:07.225Z,26.39
2023-04-17T04:31:07.303Z,25.00
2023-04-17T04:32:07.336Z,25.00
2023-04-17T04:33:07.493Z,25.33
2023-04-17T04:34:07.471Z,25.00
2023-04-17T04:35:07.577Z,26.24
2023-04-17T04:36:07.575Z,32.25
2023-04-17T04:37:07.687Z,36.88
2023-04-17T04:38:08.595Z,42.12
2023-04-17T04:39:07.780Z,44.78
2023-04-17T04:40:07.887Z,44.06
2023-04-17T04:41:07.904Z,46.16
2023-04-17T04:42:07.962Z,47.80
2023-04-17T04:43:08.025Z,46.14
2023-04-17T04:44:08.083Z,46.63
2023-04-17T04:45:08.156Z,46.23
2023-04-17T04:46:08.200Z,46.91
2023-04-17T04:47:08.350Z,46.59
2023-04-17T04:48:08.381Z,45.34
2023-04-17T04:49:08.423Z,42.61
2023-04-17T04:50:08.392Z,45.76
2023-04-17T04:51:08.440Z,42.24
2023-04-17T04:52:08.490Z,43.02
2023-04-17T04:53:08.631Z,41.59
2023-04-17T04:54:08.614Z,40.47
2023-04-17T04:55:08.669Z,40.03
2023-04-17T04:56:08.752Z,40.58
2023-04-17T04:57:08.782Z,41.60
2023-04-17T04:58:08.843Z,41.19
2023-04-17T04:59:09.031Z,39.40
2023-04-17T05:00:08.967Z,41.12
2023-04-17T05:01:09.089Z,40.65
2023-04-17T05:02:09.174Z,38.90
2023-04-17T05:03:09.400Z,39.74
2023-04-17T05:04:09.240Z,39.86
2023-04-17T05:05:09.290Z,39.23
2023-04-17T05:06:09.329Z,39.01
2023-04-17T05:07:09.306Z,37.54
2023-04-17T05:08:09.481Z,37.68
2023-04-17T05:09:09.582Z,37.79
2023-04-17T05:10:09.504Z,37.86
2023-04-17T05:11:09.567Z,36.74
2023-04-17T05:12:09.778Z,35.48
2023-04-17T05:13:09.688Z,37.38
2023-04-17T05:14:09.723Z,36.31
2023-04-17T05:15:09.880Z,35.46
2023-04-17T05:16:09.916Z,36.30
2023-04-17T05:17:10.124Z,33.66
2023-04-17T05:18:09.944Z,32.37
2023-04-17T05:19:10.312Z,33.58
2023-04-17T05:20:10.043Z,33.84
2023-04-17T05:21:10.147Z,33.73
2023-04-17T05:22:10.149Z,33.72
2023-04-17T05:23:10.183Z,34.82
2023-04-17T05:24:10.294Z,34.36
2023-04-17T05:25:10.313Z,34.11
2023-04-17T05:26:10.355Z,34.20
2023-04-17T05:27:10.383Z,33.74
2023-04-17T05:28:10.426Z,33.08
2023-04-17T05:29:10.768Z,33.42
2023-04-17T05:30:13.198Z,33.72
2023-04-17T05:31:10.854Z,33.98
2023-04-17T05:32:11.064Z,33.29
2023-04-17T05:33:11.135Z,34.03
2023-04-17T05:34:10.977Z,34.58
2023-04-17T05:35:11.052Z,36.14
2023-04-17T05:36:11.227Z,41.67
2023-04-17T05:37:11.101Z,43.18
2023-04-17T05:38:11.218Z,45.70
2023-04-17T05:39:11.512Z,53.12
2023-04-17T05:40:11.283Z,58.74
2023-04-17T05:41:11.333Z,64.87
2023-04-17T05:42:11.388Z,66.99
2023-04-17T05:43:12.160Z,69.52
2023-04-17T05:44:11.421Z,74.74
2023-04-17T05:45:12.114Z,77.95
2023-04-17T05:46:11.577Z,80.21
2023-04-17T05:47:11.581Z,80.03
2023-04-17T05:48:11.498Z,85.95
2023-04-17T05:49:11.731Z,88.82
2023-04-17T05:50:11.489Z,91.03
2023-04-17T05:51:11.512Z,94.97
2023-04-17T05:52:11.503Z,94.34
2023-04-17T05:53:11.512Z,95.92
2023-04-17T05:54:11.635Z,96.83
2023-04-17T05:55:12.561Z,99.92
2023-04-17T05:56:11.613Z,103.93
2023-04-17T05:57:11.603Z,104.08
2023-04-17T05:58:23.138Z,104.86
2023-04-17T05:59:12.771Z,105.10
2023-04-17T06:00:11.625Z,105.50
2023-04-17T06:01:11.627Z,108.64
2023-04-17T06:02:11.709Z,113.14
2023-04-17T06:03:11.830Z,118.54
2023-04-17T06:04:11.903Z,117.82
2023-04-17T06:05:11.799Z,124.36
2023-04-17T06:06:11.565Z,119.61
2023-04-17T06:07:11.600Z,124.24
2023-04-17T06:08:11.678Z,122.69
2023-04-17T06:09:12.029Z,129.56
2023-04-17T06:10:11.746Z,127.45
2023-04-17T06:11:11.809Z,124.04
2023-04-17T06:12:11.802Z,127.20
2023-04-17T06:13:11.853Z,129.08
2023-04-17T06:14:11.854Z,130.55
2023-04-17T06:15:12.024Z,129.96
2023-04-17T06:16:11.945Z,133.36
2023-04-17T06:17:12.251Z,135.11
2023-04-17T06:18:12.010Z,136.04
2023-04-17T06:19:12.333Z,135.71
2023-04-17T06:20:12.011Z,140.98
2023-04-17T06:21:12.087Z,137.44
2023-04-17T06:22:12.081Z,143.72
2023-04-17T06:23:12.143Z,146.47
2023-04-17T06:24:12.114Z,142.91
2023-04-17T06:25:12.098Z,146.19
2023-04-17T06:26:12.105Z,147.83
2023-04-17T06:27:12.135Z,146.48
2023-04-17T06:28:12.117Z,147.99
2023-04-17T06:29:12.511Z,150.09
2023-04-17T06:30:12.143Z,148.35
2023-04-17T06:31:12.312Z,151.21
2023-04-17T06:32:12.144Z,146.22
2023-04-17T06:33:12.162Z,145.52
2023-04-17T06:34:12.125Z,142.02
2023-04-17T06:35:12.260Z,145.21
2023-04-17T06:36:12.192Z,143.15
2023-04-17T06:37:12.654Z,148.44
2023-04-17T06:38:12.183Z,148.99
2023-04-17T06:39:12.594Z,154.25
2023-04-17T06:40:13.898Z,162.76
2023-04-17T06:41:12.313Z,167.66
2023-04-17T06:42:12.622Z,172.31
2023-04-17T06:43:12.398Z,174.20
2023-04-17T06:44:12.366Z,176.07
2023-04-17T06:45:12.377Z,177.63
2023-04-17T06:46:12.485Z,178.03
2023-04-17T06:47:12.580Z,177.98
2023-04-17T06:48:12.567Z,177.44
2023-04-17T06:49:12.765Z,182.36
2023-04-17T06:50:12.601Z,185.18
2023-04-17T06:51:12.590Z,188.57
2023-04-17T06:52:12.643Z,186.04
2023-04-17T06:53:12.697Z,181.16
2023-04-17T06:54:12.760Z,182.93
2023-04-17T06:55:12.813Z,182.81
2023-04-17T06:56:12.865Z,181.98
2023-04-17T06:57:12.928Z,181.80
2023-04-17T06:58:13.084Z,180.82
2023-04-17T06:59:13.277Z,181.12
2023-04-17T07:00:13.088Z,178.21
2023-04-17T07:01:13.324Z,176.88
2023-04-17T07:02:14.508Z,176.01
2023-04-17T07:03:13.362Z,172.36
2023-04-17T07:04:13.456Z,173.75
2023-04-17T07:05:13.393Z,171.66
2023-04-17T07:06:13.476Z,173.54
2023-04-17T07:07:13.620Z,169.35
2023-04-17T07:08:13.628Z,165.33
2023-04-17T07:09:13.745Z,166.68
2023-04-17T07:10:13.727Z,164.92
2023-04-17T07:11:14.148Z,164.43
2023-04-17T07:12:13.800Z,163.99
2023-04-17T07:13:13.868Z,162.35
2023-04-17T07:14:14.019Z,159.93
2023-04-17T07:15:14.099Z,159.64
2023-04-17T07:16:14.051Z,153.29
2023-04-17T07:17:14.106Z,153.17
2023-04-17T07:18:14.102Z,153.36
2023-04-17T07:19:14.383Z,153.16
2023-04-17T07:20:15.208Z,153.18
2023-04-17T07:21:14.366Z,147.28
2023-04-17T07:22:14.337Z,148.02
2023-04-17T07:23:14.295Z,147.46
2023-04-17T07:24:14.383Z,146.23
2023-04-17T07:25:14.410Z,141.78
2023-04-17T07:26:14.481Z,141.21
2023-04-17T07:27:14.531Z,143.52
2023-04-17T07:28:14.592Z,143.09
2023-04-17T07:29:14.734Z,141.20
2023-04-17T07:30:14.628Z,137.77
2023-04-17T07:31:14.654Z,137.20
2023-04-17T07:32:14.724Z,133.37
2023-04-17T07:33:14.784Z,137.16
2023-04-17T07:34:15.177Z,133.85
2023-04-17T07:35:15.678Z,137.28
2023-04-17T07:36:14.860Z,117.37
2023-04-17T07:37:14.891Z,103.98
2023-04-17T07:38:14.954Z,95.92
2023-04-17T07:39:15.002Z,87.13
2023-04-17T07:40:15.084Z,64.10
2023-04-17T07:41:15.024Z,59.97
2023-04-17T07:42:15.073Z,52.25
2023-04-17T07:43:15.042Z,60.69
2023-04-17T07:44:15.022Z,65.50
2023-04-17T07:45:15.099Z,61.21
2023-04-17T07:46:15.148Z,58.41
2023-04-17T07:47:15.222Z,53.28
2023-04-17T07:48:15.267Z,46.34
2023-04-17T07:49:15.511Z,46.50
2023-04-17T07:50:15.284Z,48.73
2023-04-17T07:51:15.302Z,43.29
2023-04-17T07:52:15.686Z,42.65
2023-04-17T07:53:15.472Z,43.12
2023-04-17T07:54:15.474Z,41.91
2023-04-17T07:55:15.529Z,40.20
2023-04-17T07:56:15.636Z,29.79
2023-04-17T07:57:16.269Z,25.38
2023-04-17T07:58:15.633Z,26.08
2023-04-17T07:59:15.662Z,25.00
2023-04-17T08:00:16.229Z,26.27
2023-04-17T08:01:15.798Z,31.83
2023-04-17T08:02:16.278Z,27.72
2023-04-17T08:03:16.040Z,25.00
2023-04-17T08:04:16.489Z,29.38
2023-04-17T08:05:17.990Z,26.56
2023-04-17T08:06:16.086Z,26.80
2023-04-17T08:07:16.020Z,26.66
2023-04-17T08:08:16.145Z,25.00
2023-04-17T08:09:16.152Z,26.09
2023-04-17T08:10:16.316Z,23.85
2023-04-17T08:11:16.152Z,25.00
2023-04-17T08:12:16.160Z,25.00
2023-04-17T08:13:16.144Z,28.60
2023-04-17T08:14:16.655Z,28.95
2023-04-17T08:15:16.190Z,26.88
2023-04-17T08:16:16.353Z,31.60
2023-04-17T08:17:16.314Z,33.03
2023-04-17T08:18:16.424Z,29.81
2023-04-17T08:19:16.313Z,28.14
2023-04-17T08:20:16.373Z,33.51
2023-04-17T08:21:16.415Z,27.13
2023-04-17T08:22:16.449Z,29.29
2023-04-17T08:23:16.456Z,25.94
2023-04-17T08:24:18.696Z,30.60
2023-04-17T08:25:16.463Z,35.55
2023-04-17T08:26:16.461Z,24.63
2023-04-17T08:27:16.673Z,26.38
2023-04-17T08:28:16.450Z,25.00
2023-04-17T08:29:16.845Z,24.48
2023-04-17T08:30:18.769Z,25.00
2023-04-17T08:31:16.578Z,25.31
2023-04-17T08:32:17.240Z,23.64
2023-04-17T08:33:16.465Z,16.27
2023-04-17T08:34:16.527Z,0.67
2023-04-17T08:35:16.426Z,0.00
2023-04-17T08:36:16.548Z,0.00
2023-04-17T08:37:16.378Z,0.00
2023-04-17T08:38:16.422Z,2.11
2023-04-17T08:39:16.396Z,19.08
2023-04-17T08:40:16.518Z,31.07
2023-04-17T08:41:16.332Z,26.07
2023-04-17T08:42:18.897Z,33.69
2023-04-17T08:43:16.423Z,34.73
2023-04-17T08:44:16.429Z,41.37
2023-04-17T08:45:16.530Z,61.63
2023-04-17T08:46:16.364Z,93.05
2023-04-17T08:47:16.288Z,140.17
2023-04-17T08:48:16.394Z,157.45
2023-04-17T08:49:16.435Z,169.69
2023-04-17T08:50:16.423Z,180.91
2023-04-17T08:51:16.300Z,182.32
2023-04-17T08:52:16.282Z,181.97
2023-04-17T08:53:16.310Z,197.69
2023-04-17T08:54:16.289Z,195.55
2023-04-17T08:55:16.221Z,200.60
2023-04-17T08:56:16.656Z,200.04
2023-04-17T08:57:16.252Z,198.95
2023-04-17T08:58:16.273Z,202.15
2023-04-17T08:59:16.273Z,206.56
2023-04-17T09:00:17.281Z,219.79
2023-04-17T09:01:16.318Z,227.10
2023-04-17T09:02:16.391Z,233.27
2023-04-17T09:03:19.283Z,240.47
2023-04-17T09:04:16.353Z,240.92
2023-04-17T09:05:16.174Z,243.69
2023-04-17T09:06:16.219Z,251.17
2023-04-17T09:07:16.209Z,268.25
2023-04-17T09:08:16.702Z,293.83
2023-04-17T09:09:16.219Z,250.00
2023-04-17T09:10:16.249Z,250.00
2023-04-17T09:11:16.248Z,247.74
2023-04-17T09:12:16.136Z,250.00
2023-04-17T09:13:16.156Z,232.73
2023-04-17T09:14:16.177Z,245.50
2023-04-17T09:15:16.194Z,226.50
2023-04-17T09:16:16.288Z,212.53
2023-04-17T09:17:16.503Z,237.23
2023-04-17T09:18:16.183Z,250.00
2023-04-17T09:19:16.099Z,250.00
2023-04-17T09:20:16.088Z,250.00
2023-04-17T09:21:16.169Z,250.00
2023-04-17T09:22:16.075Z,250.00
2023-04-17T09:23:16.110Z,249.55
2023-04-17T09:24:16.222Z,243.23
2023-04-17T09:25:16.506Z,245.27
2023-04-17T09:26:16.057Z,250.00
2023-04-17T09:27:16.141Z,247.48
2023-04-17T09:28:16.067Z,235.47
2023-04-17T09:29:16.260Z,248.52
2023-04-17T09:30:16.056Z,250.26
2023-04-17T09:31:16.137Z,248.06
2023-04-17T09:32:16.115Z,250.00
2023-04-17T09:33:16.078Z,250.28
2023-04-17T09:34:16.065Z,236.60
2023-04-17T09:35:16.065Z,250.00
2023-04-17T09:36:15.995Z,236.30
2023-04-17T09:37:16.027Z,250.74
2023-04-17T09:38:16.012Z,249.43
2023-04-17T09:39:16.045Z,248.48
2023-04-17T09:40:16.009Z,238.11
2023-04-17T09:41:16.002Z,246.46
2023-04-17T09:42:16.150Z,242.70
2023-04-17T09:43:16.121Z,247.90
2023-04-17T09:44:16.181Z,251.93
2023-04-17T09:45:16.295Z,234.48
2023-04-17T09:46:16.258Z,237.78
2023-04-17T09:47:16.315Z,227.47
2023-04-17T09:48:16.344Z,231.64
2023-04-17T09:49:16.408Z,223.39
2023-04-17T09:50:16.583Z,233.22
2023-04-17T09:51:16.529Z,239.39
2023-04-17T09:52:16.635Z,250.00
2023-04-17T09:53:16.611Z,250.00
2023-04-17T09:54:19.269Z,248.80
2023-04-17T09:55:16.729Z,243.83
2023-04-17T09:56:16.738Z,246.84
2023-04-17T09:57:16.640Z,210.31
2023-04-17T09:58:16.661Z,194.06
2023-04-17T09:59:16.679Z,185.55
2023-04-17T10:00:16.581Z,188.57
2023-04-17T10:01:16.679Z,190.42
2023-04-17T10:02:16.865Z,175.66
2023-04-17T10:03:16.792Z,127.02
2023-04-17T10:04:16.894Z,119.45
2023-04-17T10:05:16.585Z,116.07
2023-04-17T10:06:16.570Z,109.13
2023-04-17T10:07:16.730Z,82.04
2023-04-17T10:08:16.588Z,90.18
2023-04-17T10:09:16.596Z,98.76
2023-04-17T10:10:16.679Z,106.95
2023-04-17T10:11:16.834Z,113.26
2023-04-17T10:12:16.581Z,123.92
2023-04-17T10:13:16.619Z,133.32
2023-04-17T10:14:16.620Z,143.62
2023-04-17T10:15:16.727Z,147.56
2023-04-17T10:16:16.625Z,149.55
2023-04-17T10:17:16.473Z,156.57
2023-04-17T10:18:16.658Z,157.12
2023-04-17T10:19:16.500Z,158.15
2023-04-17T10:20:16.544Z,159.46
2023-04-17T10:21:16.543Z,169.50
2023-04-17T10:22:16.471Z,176.27
2023-04-17T10:23:16.492Z,173.74
2023-04-17T10:24:16.445Z,174.87
2023-04-17T10:25:16.449Z,173.32
2023-04-17T10:26:16.516Z,175.41
2023-04-17T10:27:16.522Z,178.94
2023-04-17T10:28:16.471Z,178.58
2023-04-17T10:29:16.813Z,176.42
2023-04-17T10:30:16.542Z,139.62
2023-04-17T10:31:16.503Z,118.36
2023-04-17T10:32:16.556Z,87.16
2023-04-17T10:33:16.558Z,83.95
2023-04-17T10:34:16.418Z,85.42
2023-04-17T10:35:16.412Z,94.31
2023-04-17T10:36:16.420Z,97.61
2023-04-17T10:37:16.335Z,96.06
2023-04-17T10:38:16.389Z,102.00
2023-04-17T10:39:16.434Z,104.01
2023-04-17T10:40:16.438Z,104.34
2023-04-17T10:41:16.357Z,100.55
2023-04-17T10:42:16.312Z,107.46
2023-04-17T10:43:16.354Z,104.35
2023-04-17T10:44:16.333Z,105.31
2023-04-17T10:45:16.323Z,110.91
2023-04-17T10:46:16.833Z,113.80
2023-04-17T10:47:16.376Z,113.73
2023-04-17T10:48:16.358Z,108.42
2023-04-17T10:49:16.289Z,112.95
2023-04-17T10:50:16.298Z,112.15
2023-04-17T10:51:16.261Z,113.70
2023-04-17T10:52:16.331Z,119.89
2023-04-17T10:53:16.321Z,90.68
2023-04-17T10:54:16.348Z,90.46
2023-04-17T10:55:16.409Z,94.29
2023-04-17T10:56:16.333Z,97.54
2023-04-17T10:57:16.232Z,102.14
2023-04-17T10:58:16.236Z,99.71
2023-04-17T10:59:16.484Z,98.72
2023-04-17T11:00:16.243Z,97.43
2023-04-17T11:01:16.286Z,105.16
2023-04-17T11:02:16.311Z,111.99
2023-04-17T11:03:16.337Z,115.09
2023-04-17T11:04:16.256Z,103.11
2023-04-17T11:05:16.155Z,99.33
2023-04-17T11:06:16.265Z,96.95
2023-04-17T11:07:16.204Z,95.90
2023-04-17T11:08:16.142Z,98.33
2023-04-17T11:09:16.503Z,101.96
2023-04-17T11:10:16.241Z,104.79
2023-04-17T11:11:18.549Z,113.96
2023-04-17T11:12:17.278Z,114.18
2023-04-17T11:13:16.255Z,115.33
2023-04-17T11:14:16.335Z,117.40
2023-04-17T11:15:16.277Z,122.74
2023-04-17T11:16:16.283Z,134.50
2023-04-17T11:17:16.358Z,142.93
2023-04-17T11:18:16.265Z,146.83
2023-04-17T11:19:16.200Z,149.96
2023-04-17T11:20:16.196Z,154.86
2023-04-17T11:21:16.268Z,153.95
2023-04-17T11:22:16.726Z,156.77
2023-04-17T11:23:16.549Z,155.49
2023-04-17T11:24:16.395Z,155.70
2023-04-17T11:25:17.964Z,156.44
2023-04-17T11:26:16.543Z,152.97
2023-04-17T11:27:16.574Z,153.58
2023-04-17T11:28:16.659Z,150.13
2023-04-17T11:29:16.820Z,148.75
2023-04-17T11:30:16.778Z,145.94
2023-04-17T11:31:19.054Z,147.79
2023-04-17T11:32:16.793Z,145.57
2023-04-17T11:33:16.794Z,143.18
2023-04-17T11:34:16.863Z,139.64
2023-04-17T11:35:16.816Z,132.79
2023-04-17T11:36:16.780Z,129.56
2023-04-17T11:37:16.798Z,127.95
2023-04-17T11:38:17.243Z,125.83
2023-04-17T11:39:16.728Z,120.56
2023-04-17T11:40:16.747Z,117.55
2023-04-17T11:41:16.753Z,114.76
2023-04-17T11:42:16.848Z,109.17
2023-04-17T11:43:16.792Z,106.23
2023-04-17T11:44:16.840Z,103.50
2023-04-17T11:45:16.748Z,104.02
2023-04-17T11:46:16.849Z,105.92
2023-04-17T11:47:16.712Z,101.60
2023-04-17T11:48:16.696Z,100.25
2023-04-17T11:49:16.678Z,95.76
2023-04-17T11:50:16.731Z,95.05
2023-04-17T11:51:16.669Z,92.87
2023-04-17T11:52:18.000Z,90.44
2023-04-17T11:53:16.713Z,90.18
2023-04-17T11:54:16.660Z,89.41
2023-04-17T11:55:16.669Z,96.21
2023-04-17T11:56:16.653Z,94.42
2023-04-17T11:57:16.647Z,97.36
2023-04-17T11:58:16.757Z,101.11
2023-04-17T11:59:16.659Z,101.53
2023-04-17T12:00:16.675Z,103.45
2023-04-17T12:01:16.751Z,106.38
2023-04-17T12:02:17.007Z,110.45
2023-04-17T12:03:17.026Z,110.19
2023-04-17T12:04:17.305Z,110.45
2023-04-17T12:05:17.073Z,109.25
2023-04-17T12:06:17.103Z,122.81
2023-04-17T12:07:17.057Z,128.78
2023-04-17T12:08:17.230Z,131.54
2023-04-17T12:09:17.157Z,134.40
2023-04-17T12:10:17.260Z,135.70
2023-04-17T12:11:17.329Z,137.60
2023-04-17T12:12:17.444Z,139.29
2023-04-17T12:13:17.375Z,142.31
2023-04-17T12:14:17.416Z,135.35
2023-04-17T12:15:17.498Z,131.21
2023-04-17T12:16:17.651Z,128.19
2023-04-17T12:17:17.814Z,127.07
2023-04-17T12:18:17.610Z,127.57
2023-04-17T12:19:17.718Z,127.23
2023-04-17T12:20:17.715Z,124.48
2023-04-17T12:21:17.874Z,123.51
2023-04-17T12:22:17.986Z,118.75
2023-04-17T12:23:18.021Z,109.67
2023-04-17T12:24:17.984Z,102.36
2023-04-17T12:25:18.066Z,97.85
2023-04-17T12:26:18.065Z,96.33
2023-04-17T12:27:18.130Z,93.60
2023-04-17T12:28:18.194Z,89.36
2023-04-17T12:29:22.063Z,87.89
2023-04-17T12:30:19.327Z,87.91
2023-04-17T12:31:18.225Z,81.02
2023-04-17T12:32:18.219Z,78.24
2023-04-17T12:33:18.251Z,77.04
2023-04-17T12:34:18.196Z,76.43
2023-04-17T12:35:18.247Z,72.91
2023-04-17T12:36:18.295Z,73.41
2023-04-17T12:37:18.218Z,73.52
2023-04-17T12:38:18.372Z,70.31
2023-04-17T12:39:18.275Z,70.61
2023-04-17T12:40:18.340Z,66.29
2023-04-17T12:41:18.461Z,64.51
2023-04-17T12:42:18.509Z,68.15
2023-04-17T12:43:18.497Z,63.11
2023-04-17T12:44:18.597Z,67.40